Loisir ou Compétition : Rejoignez un Club de la Fédération

Résultats

SAMSE SUMMER MINI BIATHLON SPRINT U17

ARCON

SPR Dames

Jury de Compétition

Délégué Technique :
JACQUEMIN VERGUET FLORENT (MJ)
D.T. Adjoint :
GRANDCLEMENT YVES (MJ)
Dir. Epreuve :
POURCHET JOEL (MJ)
Chef Pas de Tir :
BAVEREL BRICE (MJ)

Caractéristiques de la Piste

Piste :
STADE FLORENCE BAVEREL
Distance :
4.5 km
Point Haut :
 
Point Bas :
 
Montée Tot. :
 
Montée Max. :
 
Homologation :
2017-66-2

Pénalité Appliquée :
90.0000
Coefficient :
800

Catégorie :
U17
Style :
L
Type de Tir :
C-D- - - -
Clt Dos Clt/Cat Code An Nom Prénom Com Club Temps Pena Tps Tot Ecart Points
Classés
1 129 1/U17 FFS2652071 2002 RICHARD JEANNE MB LES GETS S.C 15:19.6 1-2 15:19.6 00:00.0 90.00
2 101 2/U17 FFS2669529 2002 MOUGIN THEA MJ SC GRANDVAUX 15:28.8 0-3 15:28.8 00:09.2 98.00
3 126 3/U17 FFS2660755 2002 CLOETENS MAYA DA GUC GRENOBLE 15:32.7 2-1 15:32.7 00:13.1 101.40
4 132 4/U17 FFS2655903 2002 BERTRAND FANY SA SC MERIBEL 15:42.4 2-2 15:42.4 00:22.8 109.83
5 128 5/U17 FFS2665303 2002 MICHELON OCEANE SA BAUGES S.N 15:45.7 2-2 15:45.7 00:26.1 112.71
6 111 6/U17 FFS2670556 2002 PENDRY SHAWNA PE SC FTROMEUP2 15:59.2 1-1 15:59.2 00:39.6 124.45
7 102 7/U17 FFS2680651 2002 SERRETTE LISA MJ PREMANON SC 16:00.9 2-1 16:00.9 00:41.3 125.93
8 119 8/U17 FFS2671448 2002 PATUREL DORINE MB SCNP ROCHOIS 16:11.5 1-4 16:11.5 00:51.9 135.15
9 104 9/U17 FFS2660687 2002 GRUNEWALD ELEONORE DA VERCORS SKF 16:21.3 2-1 16:21.3 01:01.7 143.68
10 130 10/U17 FFS2671188 2002 PELLEGRINI AUGUSTINE MJ OYE-PALLET 16:28.9 1-2 16:28.9 01:09.3 150.29
11 135 11/U17 FFS2675691 2003 LEBAY CAROLINE MB PRAZ LYS-SOM 16:29.6 2-1 16:29.6 01:10.0 150.90
12 124 12/U17 FFS2662969 2003 GILBERT JEANSELME LOLA DA CS VILLARD 16:32.0 1-4 16:32.0 01:12.4 152.98
13 131 13/U17 FFS2664469 2003 MARCINIAK JULIE MB CS MEGEVE 16:42.0 0-3 16:42.0 01:22.4 161.68
14 116 14/U17 FFS2676469 2003 BONY VIOLETTE MB DRAGONS ANNY 16:46.5 2-5 16:46.5 01:26.9 165.60
15 164 15/U17 FFS2654837 2002 CHARVOLIN CANDICE LY SC BRENOD 16:48.2 1-2 16:48.2 01:28.6 167.08
16 110 16/U17 FFS2676811 2003 BAVEREL LOANE MJ ES SAUGETTE 16:55.0 2-4 16:55.0 01:35.4 172.99
17 112 17/U17 FFS2682651 2002 MORRAL FERANDIS MARIONA PE SC FTROMEUP2 16:58.8 0-4 16:58.8 01:39.2 176.30
18 114 18/U17 FFS2677081 2002 JEANNIER LEONIE MJ SC VERRIERES 17:00.1 2-3 17:00.1 01:40.5 177.43
19 106 19/U17 FFS2675560 2002 CHOUARD JULIETTE MJ SC GRANDVAUX 17:02.5 1-2 17:02.5 01:42.9 179.52
20 125 20/U17 FFS2670359 2002 BENED CHLOE MB CHABLAIS NOR 17:12.4 3-3 17:12.4 01:52.8 188.13
21 143 21/U17 FFS2654373 2003 LAMBERT TALIA SA SC MERIBEL 17:12.8 3-1 17:12.8 01:53.2 188.48
22 109 22/U17 FFS2670928 2003 SANCHEZ ANNA DA SN CHARTROUS 17:13.4 1-4 17:13.4 01:53.8 189.00
23 103 23/U17 FFS2664568 2002 TRIBOULOT JEANNE MV BASS/RUPT SN 17:14.9 3-1 17:14.9 01:55.3 190.30
24 161 24/U17 FFS2683910 2003 COURVOISIER LEA MJ SC MONT NOIR 17:18.9 1-1 17:18.9 01:59.3 193.78
25 108 25/U17 FFS2654839 2002 GREAU ALIZEE LY SC BRENOD 17:20.8 3-4 17:20.8 02:01.2 195.44
26 150 26/U17 FFS2660383 2003 MACHUT PAULINE LY SC LE POIZAT 17:22.6 2-4 17:22.6 02:03.0 197.00
27 149 27/U17 FFS2652961 2003 MILLET SOLENE MB CHABLAIS NOR 17:29.0 1-2 17:29.0 02:09.4 202.57
28 117 28/U17 FFS2671450 2002 SYLVESTRE BARON CLAIRE MB SCNP ROCHOIS 17:29.5 1-3 17:29.5 02:09.9 203.01
29 137 29/U17 FFS2676115 2003 MAUGAIN FLAVIE MJ ES SAUGETTE 17:33.1 3-3 17:33.1 02:13.5 206.14
30 113 30/U17 FFS2661517 2002 LAUTH EVA DA VERCORS SKF 17:33.2 2-2 17:33.2 02:13.6 206.22
31 152 31/U17 FFS2670559 2002 SAMSON EMMA PE SC FTROMEUP2 17:45.2 1-2 17:45.2 02:25.6 216.66
32 160 32/U17 FFS2660923 2003 BESSIERE ELISE DA SNB CHAMROUS 17:46.4 1-2 17:46.4 02:26.8 217.71
33 115 33/U17 FFS2664314 2002 BARON FIONA MJ VAL MORTEAU 17:47.0 0-1 17:47.0 02:27.4 218.23
34 134 34/U17 FFS2681102 2003 BLANC ANNA MJ SC ABBAYE 17:48.3 1-2 17:48.3 02:28.7 219.36
35 136 35/U17 FFS2675771 2003 DUPONT CHLOE MB DRAGONS ANNY 17:50.7 1-2 17:50.7 02:31.1 221.45
36 127 36/U17 FFS2657180 2002 SIBERCHICOT LISA MJ PREMANON SC 17:50.9 3-2 17:50.9 02:31.3 221.62
37 147 37/U17 FFS2682602 2003 LEGENDRE TYFAINE MJ A.S MOUTHE 17:55.9 1-2 17:55.9 02:36.3 225.97
38 120 38/U17 FFS2654873 2002 GROSSET BOURBANGE LINA MB CS MEGEVE 17:56.0 3-4 17:56.0 02:36.4 226.06
39 155 39/U17 FFS2681114 2003 HUYGHE LOU MJ SC ABBAYE 18:04.9 1-2 18:04.9 02:45.3 233.80
40 133 40/U17 FFS2659929 2002 CERDAN ANNOUK LY US CORMARANC 18:08.0 2-3 18:08.0 02:48.4 236.50
41 146 41/U17 FFS2665168 2003 RAOULT ZOE SA SC BOZEL 18:10.5 1-2 18:10.5 02:50.9 238.67
42 148 42/U17 FFS2670317 2003 GRAILLOT BUNING HANNA MV MOLSHEIM SN 18:16.5 2-2 18:16.5 02:56.9 243.89
43 107 43/U17 FFS2661232 2002 JEANGEORGES ANAIS MV BASS/RUPT SN 18:32.2 1-2 18:32.2 03:12.6 257.55
44 157 44/U17 FFS2670449 2003 BROUTIER AMELIE SA BAUGES S.N 18:33.6 3-3 18:33.6 03:14.0 258.77
45 118 45/U17 FFS2677085 2003 PELLEGRINI LILLY MJ OYE-PALLET 18:41.5 2-2 18:41.5 03:21.9 265.64
46 139 46/U17 FFS2655269 2002 GELDHOF LAURANNE DA SN CHARTROUS 18:45.7 3-1 18:45.7 03:26.1 269.30
47 105 47/U17 FFS2676609 2002 CAT LENA MJ SC MONT NOIR 18:50.4 3-3 18:50.4 03:30.8 273.38
48 159 48/U17 FFS2657041 2003 JAY CLOE SA SC MENUIRES 18:51.6 3-3 18:51.6 03:32.0 274.43
49 153 49/U17 FFS2670453 2003 LANCHAIS MANON SA CS LA FECLAZ 18:54.0 2-2 18:54.0 03:34.4 276.52
50 121 50/U17 FFS2666812 2002 TAFFIN NINA SA SC PEISEY VA 18:58.1 2-3 18:58.1 03:38.5 280.08
51 122 51/U17 FFS2670580 2003 BESSON LEONIE AP AS EDELWEISS 19:05.6 4-4 19:05.6 03:46.0 286.61
52 162 52/U17 FFS2670595 2003 COURTIEU MARGOT SA CS LA FECLAZ 19:14.3 2-2 19:14.3 03:54.7 294.18
53 156 53/U17 FFS2666106 2002 VIGNEAU LUCIE MB CHABLAIS NOR 19:30.2 3-2 19:30.2 04:10.6 308.01
54 145 54/U17 FFS2666103 2003 GERARD GESLIN MAILYS SA SC ARECHES 20:21.5 4-3 20:21.5 05:01.9 352.64
55 154 55/U17 FFS2676087 2003 CHAUSSIN THYLANE MB CS CHAMONIX 20:25.5 4-3 20:25.5 05:05.9 356.12
56 123 56/U17 FFS2665498 2002 ROCHE LUDMILLA AP AS EDELWEISS 20:27.7 5-3 20:27.7 05:08.1 358.03
57 158 57/U17 FFS2655092 2003 FERRER EVA LUNA MB VILLARD/BOEG 20:51.1 3-4 20:51.1 05:31.5 378.39
58 144 58/U17 FFS2683259 2003 ARDIET ELEONORE MJ A.S MOUTHE 20:53.9 3-5 20:53.9 05:34.3 380.82
59 142 59/U17 FFS2660639 2003 GAILLARD JUSTINE DA SA MEAUDRAIS 21:21.3 4-4 21:21.3 06:01.7 404.66
60 138 60/U17 FFS2676089 2003 MAURY LISON MB CS CHAMONIX 22:28.9 2-2 22:28.9 07:09.3 463.47
61 141 61/U17 FFS2682542 2003 LECOULTRE LARA MJ OLYMP MT DOR 25:30.8 2-4 25:30.8 10:11.2 621.71
Abandons
163 FFS2654667 2002 ANDREANI LUCILE DA CO 7 LAUX GR
Non partants
140 FFS2680222 2003 POENSIN PAULINE MB CS CHAMONIX
151 FFS2671253 2003 BOLE ISALINE MJ CSR PONTARLI